Time;durP1;ratioP1;P1;durP2;ratioP2;P2;SDS_P1;SDS_P2;PMS_P1;PMS_P2;Temp;Humidity;BMP_temperature;BMP_pressure;BME280_temperature;BME280_humidity;BME280_pressure;Samples;Min_cycle;Max_cycle;Signal;HPM_P1;HPM_P2
2024/02/14 00:01:48;;;;;;;81.90;29.20;;;;;;;2.66;86.64;101217.67;111368;1209;138887;-70
2024/02/14 00:04:14;;;;;;;83.80;28.80;;;;;;;2.65;86.88;101221.55;111601;1206;98475;-70
2024/02/14 00:06:39;;;;;;;75.20;28.90;;;;;;;2.65;86.82;101218.91;111424;1211;97653;-70
2024/02/14 00:09:06;;;;;;;78.80;29.00;;;;;;;2.66;86.82;101219.61;111394;1209;138481;-70
2024/02/14 00:11:32;;;;;;;62.60;28.30;;;;;;;2.67;86.79;101221.20;111535;1210;97689;-70
2024/02/14 00:13:58;;;;;;;64.60;25.60;;;;;;;2.65;86.80;101219.27;111386;1207;139714;-70
2024/02/14 00:16:24;;;;;;;66.50;26.90;;;;;;;2.62;86.80;101217.85;111441;1209;97590;-70
2024/02/14 00:18:50;;;;;;;61.60;25.30;;;;;;;2.61;86.80;101216.80;111564;1206;97630;-70
2024/02/14 00:21:16;;;;;;;63.30;26.10;;;;;;;2.60;86.88;101213.09;111368;1206;139993;-70
2024/02/14 00:23:41;;;;;;;79.80;29.40;;;;;;;2.60;86.82;101216.81;111427;1206;97728;-70
2024/02/14 00:26:06;;;;;;;81.70;32.70;;;;;;;2.59;86.96;101219.47;111447;1212;138828;-70
2024/02/14 00:28:32;;;;;;;73.90;27.30;;;;;;;2.56;86.79;101216.13;111450;1208;97671;-70
2024/02/14 00:30:58;;;;;;;81.50;29.30;;;;;;;2.54;86.98;101219.66;111541;1212;97636;-70
2024/02/14 00:33:24;;;;;;;84.20;32.40;;;;;;;2.51;86.86;101220.02;111432;1211;138754;-70
2024/02/14 00:35:49;;;;;;;81.70;31.90;;;;;;;2.46;87.00;101221.61;111468;1206;97566;-70
2024/02/14 00:38:14;;;;;;;85.50;32.30;;;;;;;2.42;86.99;101222.15;111443;1212;139487;-70
2024/02/14 00:40:39;;;;;;;76.30;31.00;;;;;;;2.40;86.90;101226.20;111385;1212;97630;-70
2024/02/14 00:43:04;;;;;;;82.90;32.50;;;;;;;2.38;87.01;101224.96;111542;1212;97604;-70
2024/02/14 00:45:30;;;;;;;76.10;28.00;;;;;;;2.38;87.10;101224.27;111327;1206;138928;-70
2024/02/14 00:47:57;;;;;;;65.30;28.10;;;;;;;2.36;87.18;101223.03;111409;1206;97658;-70
2024/02/14 00:50:22;;;;;;;67.80;28.50;;;;;;;2.36;87.12;101227.09;111353;1211;138922;-70
2024/02/14 00:52:49;;;;;;;63.60;27.10;;;;;;;2.34;87.22;101226.03;111293;1212;97995;-70
2024/02/14 00:55:14;;;;;;;70.70;27.30;;;;;;;2.34;87.30;101228.67;111451;1206;97589;-70
2024/02/14 00:57:40;;;;;;;71.40;27.30;;;;;;;2.32;87.26;101227.80;111377;1206;138771;-70
2024/02/14 01:00:06;;;;;;;79.60;32.00;;;;;;;2.31;87.12;101234.49;111449;1210;97666;-70
2024/02/14 01:02:32;;;;;;;70.20;29.60;;;;;;;2.26;87.21;101243.84;111497;1210;138878;-70
2024/02/14 01:04:57;;;;;;;66.00;24.90;;;;;;;2.21;87.12;101244.73;111509;1206;97775;-70
2024/02/14 01:07:22;;;;;;;71.10;27.00;;;;;;;2.19;87.32;101243.31;111461;1212;105982;-70
2024/02/14 01:09:48;;;;;;;67.40;27.40;;;;;;;2.19;87.36;101245.95;111330;1206;138732;-70
2024/02/14 01:12:14;;;;;;;71.30;28.10;;;;;;;2.17;87.25;101248.95;111590;1212;97616;-70
2024/02/14 01:14:39;;;;;;;66.40;28.30;;;;;;;2.13;87.25;101243.66;111336;1212;138930;-70
2024/02/14 01:17:05;;;;;;;71.50;27.30;;;;;;;2.08;87.38;101241.73;111489;1206;98003;-70
2024/02/14 01:19:30;;;;;;;66.20;27.80;;;;;;;2.05;87.23;101244.02;111378;1212;140636;-73
2024/02/14 01:21:58;;;;;;;70.10;28.10;;;;;;;2.03;87.41;101245.59;111407;1212;97684;-70
2024/02/14 01:24:26;;;;;;;73.10;28.20;;;;;;;2.02;87.37;101239.95;111450;1209;97755;-70
2024/02/14 01:26:52;;;;;;;77.50;29.70;;;;;;;2.02;87.24;101239.25;111238;1212;139688;-70
2024/02/14 01:29:19;;;;;;;78.40;28.90;;;;;;;1.99;87.49;101238.19;111465;1207;100101;-70
2024/02/14 01:31:44;;;;;;;72.30;29.20;;;;;;;1.98;87.33;101237.30;111369;1209;139033;-70
2024/02/14 01:34:10;;;;;;;71.80;28.00;;;;;;;1.95;87.29;101234.30;111579;1212;97595;-70
2024/02/14 01:36:38;;;;;;;68.60;27.70;;;;;;;1.90;87.32;101232.54;111477;1206;97615;-70
2024/02/14 01:39:04;;;;;;;67.10;27.00;;;;;;;1.91;87.55;101234.12;111352;1206;139175;-70
2024/02/14 01:41:32;;;;;;;76.50;29.70;;;;;;;1.90;87.58;101233.23;111249;1206;98974;-70
2024/02/14 01:43:59;;;;;;;68.30;28.30;;;;;;;1.88;87.46;101230.95;111285;1207;139681;-70
2024/02/14 01:46:24;;;;;;;70.20;26.20;;;;;;;1.84;87.45;101235.70;111387;1206;97675;-70
2024/02/14 01:48:49;;;;;;;69.70;27.80;;;;;;;1.81;87.60;101237.64;111572;1206;97592;-70
2024/02/14 01:51:19;;;;;;;72.00;26.90;;;;;;;1.80;87.70;101234.80;111419;1206;138620;-71
2024/02/14 01:53:45;;;;;;;60.50;25.10;;;;;;;1.80;87.49;101236.05;111521;1210;111110;-70
2024/02/14 01:56:10;;;;;;;60.70;24.00;;;;;;;1.79;87.55;101232.16;111486;1207;139056;-70
2024/02/14 01:58:37;;;;;;;69.90;24.20;;;;;;;1.79;87.81;101234.64;111559;1206;99081;-70
2024/02/14 02:01:04;;;;;;;58.20;23.40;;;;;;;1.80;87.82;101234.45;111595;1210;97850;-70
2024/02/14 02:03:29;;;;;;;63.20;24.60;;;;;;;1.80;87.83;101234.11;111358;1211;138651;-70
2024/02/14 02:05:55;;;;;;;62.20;22.30;;;;;;;1.82;87.83;101230.23;111467;1206;97703;-70
2024/02/14 02:08:21;;;;;;;52.00;21.80;;;;;;;1.84;87.85;101228.12;111502;1206;139865;-70
2024/02/14 02:10:46;;;;;;;49.70;22.10;;;;;;;1.87;88.02;101226.89;111545;1206;96220;-70
2024/02/14 02:13:12;;;;;;;51.60;21.10;;;;;;;1.91;88.21;101223.90;111617;1212;99062;-70
2024/02/14 02:15:38;;;;;;;55.10;22.00;;;;;;;1.91;88.03;101224.08;111408;1209;140063;-70
2024/02/14 02:18:05;;;;;;;47.60;19.90;;;;;;;1.91;88.12;101220.20;111596;1206;97684;-70
2024/02/14 02:20:32;;;;;;;64.10;20.10;;;;;;;1.89;88.04;101217.73;111443;1209;139607;-70
2024/02/14 02:22:57;;;;;;;51.00;21.30;;;;;;;1.88;87.94;101215.61;111642;1206;97638;-70
2024/02/14 02:25:25;;;;;;;52.30;22.20;;;;;;;1.88;88.00;101216.14;111540;1209;107536;-70
2024/02/14 02:27:51;;;;;;;56.40;23.10;;;;;;;1.86;87.98;101219.31;111561;1208;97629;-70
2024/02/14 02:30:16;;;;;;;52.50;21.50;;;;;;;1.85;88.11;101223.36;111624;1206;97650;-70
2024/02/14 02:32:42;;;;;;;46.40;20.40;;;;;;;1.84;88.21;101227.95;111495;1206;139064;-70
2024/02/14 02:35:09;;;;;;;54.60;21.00;;;;;;;1.85;88.08;101223.54;111574;1209;97643;-70
2024/02/14 02:37:35;;;;;;;57.50;21.10;;;;;;;1.84;88.06;101224.25;111482;1206;139405;-70
2024/02/14 02:40:00;;;;;;;48.30;19.70;;;;;;;1.85;88.21;101224.42;111642;1206;97610;-71
2024/02/14 02:42:25;;;;;;;46.70;20.10;;;;;;;1.85;88.15;101222.83;111626;1211;97649;-70
2024/02/14 02:44:51;;;;;;;41.30;18.10;;;;;;;1.83;88.12;101225.13;111443;1206;140054;-70
2024/02/14 02:47:17;;;;;;;50.70;18.70;;;;;;;1.78;88.11;101225.83;111631;1206;97745;-70
2024/02/14 02:49:44;;;;;;;46.10;19.80;;;;;;;1.83;88.47;101223.36;111472;1207;139467;-70
2024/02/14 02:52:10;;;;;;;44.00;17.50;;;;;;;1.86;88.30;101227.77;111632;1206;97531;-70
2024/02/14 02:54:36;;;;;;;39.60;16.90;;;;;;;1.83;88.34;101232.88;111547;1209;98619;-70
2024/02/14 02:57:03;;;;;;;39.80;17.60;;;;;;;1.85;88.48;101234.83;111575;1206;139197;-70
2024/02/14 02:59:29;;;;;;;42.00;18.00;;;;;;;1.88;88.53;101236.23;111582;1209;111083;-70
2024/02/14 03:01:55;;;;;;;37.70;17.40;;;;;;;1.89;88.36;101237.11;111507;1208;139706;-70
2024/02/14 03:04:20;;;;;;;41.80;16.60;;;;;;;1.86;88.44;101234.46;111669;1207;97656;-70
2024/02/14 03:06:46;;;;;;;39.50;15.80;;;;;;;1.86;88.37;101240.10;111557;1206;98041;-70
2024/02/14 03:09:12;;;;;;;42.20;15.40;;;;;;;1.84;88.30;101239.22;111490;1212;139557;-70
2024/02/14 03:11:38;;;;;;;42.40;17.30;;;;;;;1.83;88.58;101242.74;111535;1206;97613;-70
2024/02/14 03:14:03;;;;;;;36.40;15.90;;;;;;;1.84;88.56;101247.33;111433;1206;139642;-70
2024/02/14 03:16:30;;;;;;;35.50;16.60;;;;;;;1.85;88.69;101248.20;111534;1206;97688;-70
2024/02/14 03:18:55;;;;;;;42.40;15.50;;;;;;;1.84;88.52;101248.04;111593;1211;97730;-70
2024/02/14 03:21:20;;;;;;;37.10;16.40;;;;;;;1.81;88.44;101247.50;111469;1210;140388;-70
2024/02/14 03:23:45;;;;;;;41.50;16.00;;;;;;;1.79;88.43;101240.98;111532;1206;97658;-70
2024/02/14 03:26:11;;;;;;;37.80;16.00;;;;;;;1.80;88.59;101241.33;111566;1206;141661;-70
2024/02/14 03:28:36;;;;;;;35.50;15.30;;;;;;;1.80;88.54;101244.67;111539;1205;97622;-70
2024/02/14 03:31:01;;;;;;;40.40;17.00;;;;;;;1.78;88.49;101249.25;111600;1210;97733;-70
2024/02/14 03:33:28;;;;;;;34.40;15.60;;;;;;;1.79;88.65;101252.42;111382;1210;139136;-70
2024/02/14 03:35:54;;;;;;;38.30;16.00;;;;;;;1.80;88.73;101251.20;111524;1206;99045;-70
2024/02/14 03:38:26;;;;;;;38.10;15.60;;;;;;;1.79;88.67;101248.55;111461;1212;138664;-70
2024/02/14 03:40:54;;;;;;;37.70;15.30;;;;;;;1.77;88.54;101249.61;111631;1210;107456;-70
2024/02/14 03:43:23;;;;;;;34.00;15.30;;;;;;;1.75;88.60;101248.19;111600;1207;98976;-70
2024/02/14 03:45:48;;;;;;;38.00;16.10;;;;;;;1.74;88.71;101250.30;111474;1211;138485;-70
2024/02/14 03:48:13;;;;;;;40.10;16.40;;;;;;;1.72;88.53;101249.41;111585;1206;97695;-70
2024/02/14 03:50:39;;;;;;;46.60;15.70;;;;;;;1.71;88.71;101248.89;111463;1206;139063;-70
2024/02/14 03:53:05;;;;;;;34.50;17.20;;;;;;;1.68;88.58;101250.45;111550;1211;98317;-72
2024/02/14 03:55:31;;;;;;;37.20;16.30;;;;;;;1.67;88.81;101248.17;111437;1206;138791;-70
2024/02/14 03:57:56;;;;;;;37.80;16.50;;;;;;;1.68;88.88;101245.52;111660;1206;98874;-70
2024/02/14 04:00:22;;;;;;;35.40;15.20;;;;;;;1.70;88.72;101247.12;111564;1206;97640;-70
2024/02/14 04:02:48;;;;;;;33.70;16.80;;;;;;;1.68;88.76;101242.88;111456;1210;138829;-70
2024/02/14 04:05:14;;;;;;;37.10;15.90;;;;;;;1.67;88.76;101246.58;111577;1212;111972;-70
2024/02/14 04:07:40;;;;;;;41.60;15.90;;;;;;;1.65;88.63;101244.64;111412;1210;139316;-70
2024/02/14 04:10:07;;;;;;;36.10;16.10;;;;;;;1.65;89.00;101247.11;111602;1207;97662;-70
2024/02/14 04:12:32;;;;;;;38.90;15.60;;;;;;;1.65;88.87;101246.40;111527;1209;97764;-69
2024/02/14 04:14:57;;;;;;;37.00;15.80;;;;;;;1.65;88.96;101247.64;111433;1206;139295;-70
2024/02/14 04:17:24;;;;;;;34.10;14.40;;;;;;;1.62;88.74;101245.69;111612;1206;97696;-70
2024/02/14 04:19:50;;;;;;;39.00;16.30;;;;;;;1.61;88.93;101243.39;111433;1210;139564;-70
2024/02/14 04:22:15;;;;;;;35.70;15.20;;;;;;;1.61;89.00;101240.23;111551;1206;97662;-70
2024/02/14 04:24:40;;;;;;;40.00;16.40;;;;;;;1.62;88.98;101237.58;111630;1207;97584;-69
2024/02/14 04:27:05;;;;;;;34.30;15.60;;;;;;;1.63;89.01;101234.24;111408;1206;140229;-70
2024/02/14 04:29:32;;;;;;;36.50;15.20;;;;;;;1.62;89.12;101236.53;111554;1210;97567;-70
2024/02/14 04:31:59;;;;;;;37.30;16.80;;;;;;;1.62;89.16;101231.77;111405;1210;138909;-70
2024/02/14 04:34:25;;;;;;;34.70;15.80;;;;;;;1.61;88.97;101235.30;111568;1206;97741;-70
2024/02/14 04:36:51;;;;;;;33.80;15.40;;;;;;;1.61;89.08;101232.83;111706;1211;97681;-70
2024/02/14 04:39:17;;;;;;;35.40;15.90;;;;;;;1.64;89.19;101233.89;111470;1206;140789;-71
2024/02/14 04:41:42;;;;;;;40.90;16.60;;;;;;;1.65;89.35;101238.30;111534;1206;97609;-70
2024/02/14 04:44:07;;;;;;;36.30;16.10;;;;;;;1.61;89.13;101237.05;111429;1211;138947;-70
2024/02/14 04:46:34;;;;;;;32.70;14.10;;;;;;;1.59;89.19;101240.05;111569;1206;97731;-69
2024/02/14 04:49:02;;;;;;;35.00;15.00;;;;;;;1.58;89.12;101238.80;111633;1206;96510;-70
2024/02/14 04:51:30;;;;;;;39.30;15.50;;;;;;;1.57;89.16;101240.92;111314;1212;138927;-70
2024/02/14 04:53:58;;;;;;;37.20;14.40;;;;;;;1.55;89.04;101244.61;111605;1210;97597;-70
2024/02/14 04:56:24;;;;;;;31.60;14.40;;;;;;;1.55;89.11;101252.02;111400;1210;138614;-70
2024/02/14 04:58:49;;;;;;;34.80;14.60;;;;;;;1.56;89.35;101254.66;111548;1212;97616;-70
2024/02/14 05:01:15;;;;;;;37.10;14.60;;;;;;;1.54;89.20;101251.66;111615;1210;97609;-70
2024/02/14 05:03:40;;;;;;;34.00;16.40;;;;;;;1.54;89.24;101253.06;111442;1206;138536;-70
2024/02/14 05:06:06;;;;;;;39.50;15.40;;;;;;;1.53;89.22;101253.59;111513;1209;97597;-70
2024/02/14 05:08:31;;;;;;;32.70;16.00;;;;;;;1.52;89.16;101246.54;111464;1206;139114;-70
2024/02/14 05:10:57;;;;;;;38.30;17.00;;;;;;;1.52;89.28;101245.66;111595;1205;97681;-70
2024/02/14 05:13:23;;;;;;;37.20;16.10;;;;;;;1.54;89.37;101245.67;111589;1210;98126;-70
2024/02/14 05:15:48;;;;;;;35.50;16.40;;;;;;;1.56;89.53;101242.50;111378;1210;138775;-70
2024/02/14 05:18:15;;;;;;;36.80;16.50;;;;;;;1.56;89.37;101240.91;111464;1206;97721;-70
2024/02/14 05:20:41;;;;;;;37.40;16.30;;;;;;;1.56;89.23;101240.04;111312;1210;139691;-70
2024/02/14 05:23:06;;;;;;;46.00;17.20;;;;;;;1.56;89.47;101240.03;111575;1206;97596;-70
2024/02/14 05:25:32;;;;;;;32.70;15.60;;;;;;;1.57;89.40;101235.10;111312;1210;138907;-70
2024/02/14 05:27:58;;;;;;;36.00;16.70;;;;;;;1.56;89.30;101235.64;111445;1211;97606;-70
2024/02/14 05:30:24;;;;;;;38.60;15.70;;;;;;;1.54;89.41;101237.91;111529;1206;97678;-70
2024/02/14 05:32:52;;;;;;;40.50;17.50;;;;;;;1.51;89.58;101238.96;111338;1210;139082;-72
2024/02/14 05:35:17;;;;;;;35.10;15.20;;;;;;;1.53;89.60;101239.86;111443;1222;97591;-72
2024/02/14 05:37:42;;;;;;;45.70;16.40;;;;;;;1.55;89.51;101240.39;111327;1206;138985;-70
2024/02/14 05:40:08;;;;;;;45.50;17.60;;;;;;;1.52;89.35;101243.55;111439;1205;99085;-70
2024/02/14 05:42:34;;;;;;;33.80;16.00;;;;;;;1.54;89.57;101245.31;111411;1210;96427;-70
2024/02/14 05:44:59;;;;;;;42.80;15.90;;;;;;;1.53;89.55;101239.33;111401;1210;138931;-70
2024/02/14 05:47:25;;;;;;;34.50;15.60;;;;;;;1.53;89.55;101236.86;111506;1206;97984;-71
2024/02/14 05:49:50;;;;;;;49.20;20.10;;;;;;;1.51;89.46;101229.45;111372;1210;138752;-70
2024/02/14 05:52:16;;;;;;;39.50;18.20;;;;;;;1.46;89.46;101238.42;111534;1210;97674;-70
2024/02/14 05:54:42;;;;;;;41.20;17.20;;;;;;;1.42;89.26;101244.21;111469;1208;97607;-70
2024/02/14 05:57:07;;;;;;;34.80;18.20;;;;;;;1.39;89.44;101239.45;111364;1206;140148;-70
2024/02/14 05:59:34;;;;;;;39.10;19.50;;;;;;;1.38;89.36;101239.98;111393;1209;98595;-70
2024/02/14 06:01:59;;;;;;;45.30;18.80;;;;;;;1.35;89.24;101235.92;111214;1210;138889;-70
2024/02/14 06:04:24;;;;;;;40.90;17.20;;;;;;;1.34;89.40;101238.91;111317;1212;97686;-72
2024/02/14 06:06:49;;;;;;;47.80;18.20;;;;;;;1.34;89.40;101240.48;111534;1206;98423;-72
2024/02/14 06:09:15;;;;;;;37.50;16.80;;;;;;;1.34;89.43;101239.79;111448;1206;138756;-70
2024/02/14 06:11:42;;;;;;;37.20;16.30;;;;;;;1.31;89.44;101240.48;111551;1210;98670;-71
2024/02/14 06:14:08;;;;;;;38.30;16.40;;;;;;;1.30;89.64;101246.30;111412;1207;138879;-70
2024/02/14 06:16:34;;;;;;;39.80;17.20;;;;;;;1.31;89.45;101250.86;111611;1210;97576;-70
2024/02/14 06:19:00;;;;;;;37.90;16.70;;;;;;;1.34;89.72;101253.34;111594;1210;98025;-69
2024/02/14 06:21:26;;;;;;;38.10;16.60;;;;;;;1.36;89.69;101252.30;111331;1210;138669;-70
2024/02/14 06:23:52;;;;;;;44.50;18.50;;;;;;;1.38;89.85;101256.71;111474;1206;96541;-69
2024/02/14 06:26:17;;;;;;;42.30;17.20;;;;;;;1.41;89.77;101258.13;111364;1208;138823;-71
2024/02/14 06:28:44;;;;;;;44.20;17.90;;;;;;;1.41;89.83;101256.89;111466;1207;97562;-71
2024/02/14 06:31:09;;;;;;;37.60;16.90;;;;;;;1.41;89.78;101260.77;111410;1210;97333;-71
2024/02/14 06:33:35;;;;;;;44.90;18.70;;;;;;;1.40;89.71;101253.90;111271;1210;139603;-69
2024/02/14 06:36:00;;;;;;;42.30;17.70;;;;;;;1.41;89.73;101256.54;111592;1210;97597;-70
2024/02/14 06:38:25;;;;;;;37.80;17.10;;;;;;;1.41;89.80;101263.06;111356;1206;138769;-70
2024/02/14 06:40:51;;;;;;;39.80;17.10;;;;;;;1.43;89.78;101266.23;111619;1206;97732;-70
2024/02/14 06:43:16;;;;;;;44.80;16.40;;;;;;;1.45;89.99;101259.02;111439;1206;99379;-70
2024/02/14 06:45:41;;;;;;;40.30;15.90;;;;;;;1.48;89.83;101255.15;111309;1210;139940;-70
2024/02/14 06:48:08;;;;;;;41.20;17.20;;;;;;;1.49;90.01;101252.16;111524;1209;97745;-70
2024/02/14 06:50:34;;;;;;;42.90;19.10;;;;;;;1.50;89.87;101250.77;111296;1208;138909;-71
2024/02/14 06:52:59;;;;;;;38.10;17.70;;;;;;;1.52;89.95;101250.95;111458;1211;97562;-71
2024/02/14 06:55:26;;;;;;;42.80;17.30;;;;;;;1.55;89.96;101249.02;111553;1206;97645;-68
2024/02/14 06:57:52;;;;;;;39.20;16.90;;;;;;;1.58;90.12;101247.96;111435;1211;97828;-71
2024/02/14 07:00:17;;;;;;;48.40;18.40;;;;;;;1.61;89.95;101251.85;111469;1210;97583;-71
2024/02/14 07:02:43;;;;;;;44.90;19.10;;;;;;;1.62;89.96;101249.39;111208;1205;139970;-71
2024/02/14 07:05:12;;;;;;;50.00;18.70;;;;;;;1.65;90.15;101252.21;111328;1210;99968;-71
2024/02/14 07:07:38;;;;;;;46.10;19.10;;;;;;;1.68;90.09;101254.86;111310;1209;139071;-69
2024/02/14 07:10:07;;;;;;;46.50;18.80;;;;;;;1.72;90.11;101256.81;111481;1210;98038;-68
2024/02/14 07:12:33;;;;;;;49.80;20.40;;;;;;;1.76;90.18;101260.88;111527;1210;99491;-68
2024/02/14 07:14:58;;;;;;;51.10;21.70;;;;;;;1.80;90.33;101255.42;111270;1212;139170;-68
2024/02/14 07:17:23;;;;;;;48.10;19.00;;;;;;;1.84;90.32;101252.25;111566;1210;97629;-69
2024/02/14 07:19:49;;;;;;;39.00;17.40;;;;;;;1.89;90.58;101257.02;111380;1205;139818;-68
2024/02/14 07:22:18;;;;;;;46.60;18.30;;;;;;;1.92;90.42;101252.80;111498;1205;97746;-68
2024/02/14 07:24:44;;;;;;;44.90;18.80;;;;;;;1.95;90.23;101252.45;111431;1210;97761;-69
2024/02/14 07:27:10;;;;;;;39.00;18.80;;;;;;;1.97;90.36;101248.23;111403;1210;138949;-69
2024/02/14 07:29:36;;;;;;;42.80;19.70;;;;;;;1.99;90.51;101248.94;111482;1208;111009;-68
2024/02/14 07:32:02;;;;;;;65.00;19.10;;;;;;;2.01;90.28;101247.53;111336;1212;139119;-69
2024/02/14 07:34:27;;;;;;;36.60;19.40;;;;;;;2.04;90.49;101248.42;111478;1206;97528;-68
2024/02/14 07:36:52;;;;;;;42.00;18.80;;;;;;;2.08;90.52;101251.41;111522;1210;98602;-69
2024/02/14 07:39:18;;;;;;;37.30;17.60;;;;;;;2.10;90.43;101248.59;111484;1209;139043;-69
2024/02/14 07:41:44;;;;;;;36.60;17.80;;;;;;;2.13;90.68;101249.65;111485;1209;108422;-68
2024/02/14 07:44:09;;;;;;;37.50;17.20;;;;;;;2.16;90.38;101244.90;111363;1206;139024;-70
2024/02/14 07:46:35;;;;;;;37.90;18.20;;;;;;;2.19;90.57;101246.48;111481;1206;97813;-68
2024/02/14 07:49:01;;;;;;;38.70;18.00;;;;;;;2.23;90.48;101241.90;111486;1210;99915;-68
2024/02/14 07:51:28;;;;;;;45.70;17.90;;;;;;;2.26;90.49;101242.61;111328;1206;138870;-68
2024/02/14 07:53:54;;;;;;;46.50;18.80;;;;;;;2.27;90.72;101241.73;111447;1210;97562;-70
2024/02/14 07:56:20;;;;;;;36.60;17.70;;;;;;;2.31;90.51;101239.79;111462;1209;139261;-70
2024/02/14 07:58:45;;;;;;;43.20;17.20;;;;;;;2.33;90.62;101235.38;111492;1206;98067;-68
2024/02/14 08:01:10;;;;;;;44.40;17.50;;;;;;;2.38;90.74;101235.73;111473;1212;98686;-68
2024/02/14 08:03:35;;;;;;;34.90;16.00;;;;;;;2.41;90.76;101233.79;111401;1208;138771;-68
2024/02/14 08:06:01;;;;;;;37.60;16.80;;;;;;;2.44;90.74;101231.48;111406;1206;97493;-68
2024/02/14 08:08:27;;;;;;;55.10;18.90;;;;;;;2.47;90.54;101229.73;111371;1207;140631;-68
2024/02/14 08:10:54;;;;;;;40.50;17.90;;;;;;;2.50;90.80;101229.55;111458;1206;97627;-67
2024/02/14 08:13:19;;;;;;;61.10;26.40;;;;;;;2.53;90.83;101228.31;111262;1206;97653;-68
2024/02/14 08:15:44;;;;;;;55.50;24.10;;;;;;;2.56;90.96;101229.89;111319;1206;139088;-68
2024/02/14 08:18:10;;;;;;;49.80;23.10;;;;;;;2.59;90.71;101227.24;111414;1206;105246;-67
2024/02/14 08:20:35;;;;;;;61.90;26.70;;;;;;;2.63;90.67;101229.50;111311;1206;138797;-67
2024/02/14 08:23:00;;;;;;;46.40;20.80;;;;;;;2.67;90.88;101228.61;111491;1206;97699;-68
2024/02/14 08:25:26;;;;;;;42.20;18.50;;;;;;;2.71;91.00;101225.08;111416;1210;97928;-69
2024/02/14 08:27:52;;;;;;;38.90;17.70;;;;;;;2.75;90.92;101227.00;111342;1210;139315;-68
2024/02/14 08:30:19;;;;;;;45.90;18.30;;;;;;;2.78;91.04;101223.11;111480;1206;97714;-68
2024/02/14 08:32:44;;;;;;;47.50;19.20;;;;;;;2.83;91.07;101227.16;111392;1206;138688;-69
2024/02/14 08:35:10;;;;;;;47.60;19.60;;;;;;;2.87;91.04;101224.86;111556;1210;97721;-68
2024/02/14 08:37:38;;;;;;;47.50;20.90;;;;;;;2.91;90.87;101223.44;111454;1208;138740;-70
2024/02/14 08:40:05;;;;;;;43.00;19.40;;;;;;;2.95;90.99;101222.19;111548;1208;97569;-68
2024/02/14 08:42:32;;;;;;;37.40;18.40;;;;;;;3.02;91.21;101220.23;111482;1206;110090;-68
2024/02/14 08:44:57;;;;;;;38.60;18.10;;;;;;;3.07;91.17;101222.15;111407;1205;141237;-68
2024/02/14 08:47:22;;;;;;;35.40;16.40;;;;;;;3.13;91.08;101222.13;111582;1210;97644;-68
2024/02/14 08:49:47;;;;;;;33.10;15.30;;;;;;;3.17;91.31;101220.17;111404;1206;138910;-67
2024/02/14 08:52:13;;;;;;;40.50;16.60;;;;;;;3.21;91.27;101221.73;111596;1205;97687;-66
2024/02/14 08:54:39;;;;;;;43.10;15.70;;;;;;;3.25;91.24;101221.89;111552;1208;98498;-68
2024/02/14 08:57:04;;;;;;;37.40;17.00;;;;;;;3.30;91.16;101225.23;111404;1211;138735;-67
2024/02/14 08:59:30;;;;;;;40.90;16.80;;;;;;;3.33;91.30;101220.10;111571;1206;97585;-67
2024/02/14 09:01:55;;;;;;;37.10;16.80;;;;;;;3.38;91.49;101220.08;111391;1210;140497;-67
2024/02/14 09:04:20;;;;;;;32.30;15.30;;;;;;;3.43;91.26;101214.23;111512;1206;98942;-68
2024/02/14 09:06:46;;;;;;;32.40;14.20;;;;;;;3.48;91.36;101214.73;111554;1210;97580;-68
2024/02/14 09:09:11;;;;;;;32.90;13.80;;;;;;;3.52;91.39;101212.76;111431;1210;139706;-68
2024/02/14 09:11:37;;;;;;;35.20;14.40;;;;;;;3.57;91.41;101210.79;111524;1210;97725;-68
2024/02/14 09:14:06;;;;;;;34.30;15.30;;;;;;;3.61;91.29;101210.41;111447;1210;138856;-68
2024/02/14 09:16:31;;;;;;;42.10;18.20;;;;;;;3.66;91.48;101205.27;111500;1206;97646;-68
2024/02/14 09:18:58;;;;;;;40.10;15.80;;;;;;;3.72;91.35;101206.45;111523;1211;98084;-68
2024/02/14 09:21:24;;;;;;;29.90;14.40;;;;;;;3.76;91.36;101208.02;111469;1211;138507;-68
2024/02/14 09:23:49;;;;;;;30.90;14.90;;;;;;;3.81;91.52;101207.98;111505;1206;97591;-67
2024/02/14 09:26:16;;;;;;;33.90;15.60;;;;;;;3.85;91.44;101206.02;111425;1207;139533;-68
2024/02/14 09:28:42;;;;;;;27.60;13.00;;;;;;;3.90;91.33;101205.10;111493;1212;97607;-68
2024/02/14 09:31:10;;;;;;;34.90;14.60;;;;;;;3.95;91.41;101202.59;111610;1209;98535;-68
2024/02/14 09:33:36;;;;;;;30.80;14.10;;;;;;;4.01;91.41;101201.84;111333;1210;139208;-68
2024/02/14 09:36:02;;;;;;;39.30;16.20;;;;;;;4.09;91.48;101196.11;111497;1210;99230;-68
2024/02/14 09:38:27;;;;;;;35.90;15.50;;;;;;;4.16;91.75;101197.30;111391;1208;138897;-67
2024/02/14 09:41:09;;;;;;;31.80;13.80;;;;;;;4.20;91.33;101194.77;111552;1206;107461;-70
2024/02/14 09:43:42;;;;;;;37.90;13.50;;;;;;;4.27;91.61;101191.55;111331;1209;139483;-70
2024/02/14 09:46:08;;;;;;;40.80;15.10;;;;;;;4.33;91.59;101193.79;111612;1210;97607;-67
2024/02/14 09:48:34;;;;;;;30.00;13.10;;;;;;;4.39;91.58;101194.79;111472;1209;98012;-67
2024/02/14 09:51:00;;;;;;;38.80;14.80;;;;;;;4.45;91.48;101189.77;111435;1219;139233;-67
2024/02/14 09:53:26;;;;;;;31.20;12.70;;;;;;;4.51;91.51;101191.66;111377;1212;97593;-67
2024/02/14 09:56:12;;;;;;;36.50;13.70;;;;;;;4.56;91.50;101193.05;111391;1208;140632;-67
2024/02/14 09:58:40;;;;;;;31.60;12.90;;;;;;;4.62;91.52;101196.16;111412;1210;111041;-70
2024/02/14 10:01:06;;;;;;;28.00;13.10;;;;;;;4.67;91.39;101194.16;111367;1212;97552;-70
2024/02/14 10:03:32;;;;;;;23.60;11.60;;;;;;;4.74;91.48;101197.09;111254;1206;139261;-70
2024/02/14 10:05:57;;;;;;;26.20;12.20;;;;;;;4.81;91.43;101195.07;111380;1210;97589;-68
2024/02/14 10:08:23;;;;;;;23.30;10.60;;;;;;;4.90;91.47;101192.50;111401;1208;138889;-68
2024/02/14 10:10:49;;;;;;;31.00;12.30;;;;;;;4.95;91.45;101183.05;111419;1211;97591;-66
2024/02/14 10:13:16;;;;;;;31.90;12.30;;;;;;;5.04;91.67;101186.84;111484;1210;97571;-66
2024/02/14 10:15:41;;;;;;;32.60;12.80;;;;;;;5.11;91.58;101183.92;111226;1206;139379;-67
2024/02/14 10:18:09;;;;;;;27.90;11.70;;;;;;;5.16;91.42;101182.97;111434;1210;97675;-67
2024/02/14 10:20:40;;;;;;;26.60;12.90;;;;;;;5.21;91.48;101180.39;111212;1211;140226;-67
2024/02/14 10:23:08;;;;;;;32.90;13.60;;;;;;;5.29;91.49;101176.39;111320;1209;108441;-67
2024/02/14 10:25:37;;;;;;;28.40;13.20;;;;;;;5.33;91.30;101168.89;111338;1210;139655;-69
2024/02/14 10:28:08;;;;;;;29.40;13.00;;;;;;;5.37;91.38;101167.95;111452;1210;98579;-70
2024/02/14 10:30:40;;;;;;;29.50;12.40;;;;;;;5.39;91.13;101161.01;111387;1208;111648;-70
2024/02/14 10:33:07;;;;;;;29.90;12.20;;;;;;;5.43;91.33;101155.64;111300;1210;140178;-69
2024/02/14 10:35:35;;;;;;;26.30;12.10;;;;;;;5.47;91.25;101148.85;111445;1208;97603;-69
2024/02/14 10:38:02;;;;;;;28.70;13.60;;;;;;;5.49;91.07;101144.38;111357;1210;139212;-70
2024/02/14 10:40:28;;;;;;;35.10;13.60;;;;;;;5.56;91.16;101141.63;111462;1205;97828;-70
2024/02/14 10:42:57;;;;;;;26.00;12.70;;;;;;;5.63;91.27;101135.66;111550;1208;98181;-70
2024/02/14 10:45:22;;;;;;;26.50;11.90;;;;;;;5.69;91.34;101135.39;111456;1210;140262;-70
2024/02/14 10:47:52;;;;;;;23.20;11.80;;;;;;;5.75;91.22;101133.17;111539;1210;97677;-69
2024/02/14 10:50:21;;;;;;;30.80;13.00;;;;;;;5.81;91.11;101128.99;111445;1210;138633;-69
2024/02/14 10:52:48;;;;;;;27.40;10.80;;;;;;;5.90;91.25;101123.92;111559;1207;110262;-69
2024/02/14 10:55:16;;;;;;;27.70;13.10;;;;;;;5.98;91.11;101115.81;111438;1210;96440;-68
2024/02/14 10:57:43;;;;;;;28.50;11.80;;;;;;;6.05;91.06;101115.16;111420;1211;139089;-70
2024/02/14 11:00:13;;;;;;;32.80;13.00;;;;;;;6.11;91.07;101114.15;111536;1206;97662;-70
2024/02/14 11:02:39;;;;;;;27.80;12.70;;;;;;;6.18;91.04;101116.70;111464;1210;138513;-69